EST,Max TemperatureF,Mean TemperatureF,Min TemperatureF,Max Dew PointF,MeanDew PointF,Min DewpointF,Max Humidity, Mean Humidity, Min Humidity, Max Sea Level PressureIn, Mean Sea Level PressureIn, Min Sea Level PressureIn, Max VisibilityMiles, Mean VisibilityMiles, Min VisibilityMiles, Max Wind SpeedMPH, Mean Wind SpeedMPH, Max Gust SpeedMPH,PrecipitationIn, CloudCover, Events, WindDirDegrees
2013-2-1,45,33,21,26,11,-6,77,39,13,30.38,30.20,29.95,10,10,10,21,9,26,0.00,0,,269
2013-2-2,50,34,17,37,16,5,87,55,17,30.41,30.26,30.05,10,10,10,17,2,25,0.00,2,Rain,188
2013-2-3,55,43,30,36,28,19,97,62,25,30.05,29.96,29.87,10,9,4,9,3,20,0.00,2,,254
2013-2-4,50,36,23,30,25,20,89,63,32,30.18,30.07,30.02,10,10,10,6,1,,0.00,0,,173
2013-2-5,67,48,30,43,34,26,92,58,28,30.03,29.96,29.88,10,10,10,14,3,22,0.00,2,,213
2013-2-6,64,47,30,48,32,22,99,68,20,30.24,30.12,29.99,10,7,0,6,1,,0.00,2,Fog,330
2013-2-7,49,40,32,43,37,27,97,80,56,30.29,30.17,29.95,10,8,2,12,3,17,0.22,3,Rain,18
2013-2-8,61,50,40,45,39,28,95,73,46,30.11,29.92,29.85,10,10,4,15,8,21,0.08,5,Rain,307
2013-2-9,58,42,27,30,22,8,92,56,14,30.35,30.25,30.11,10,10,7,13,4,18,0.00,0,,322
2013-2-10,59,42,25,48,29,13,93,64,20,30.47,30.35,30.20,10,10,3,10,2,16,0.12,2,Rain,129
2013-2-11,63,56,50,60,56,49,94,87,70,30.19,30.05,29.95,10,10,5,12,7,22,0.10,6,Rain,195
2013-2-12,61,54,46,50,41,28,98,69,28,30.12,30.02,29.92,10,9,1,7,2,,0.03,2,Rain,283
2013-2-13,51,48,45,49,46,42,98,93,83,29.95,29.78,29.64,10,7,1,7,1,18,0.06,6,Rain,206
2013-2-14,51,40,30,41,33,28,99,78,42,30.08,30.01,29.87,10,9,4,8,1,,0.00,0,,205
2013-2-15,63,45,27,39,31,24,97,68,23,30.11,30.02,29.93,10,9,4,7,0,21,0.00,0,,229
2013-2-16,41,37,32,36,32,20,96,85,62,29.99,29.93,29.84,10,8,1,15,4,22,0.10,7,Rain-Snow,335
2013-2-17,42,33,23,22,15,6,85,51,25,30.29,30.14,30.00,10,10,10,17,4,24,0.00,1,,267
2013-2-18,55,36,17,26,19,12,91,55,21,30.41,30.33,30.25,10,10,10,9,2,16,0.00,0,,157
2013-2-19,51,41,31,49,37,23,97,84,54,30.25,30.04,29.90,10,7,0,12,4,18,0.09,5,Fog-Rain,193
2013-2-20,54,40,25,38,24,12,97,63,19,30.13,30.07,30.01,10,10,10,8,2,,0.00,0,,243
2013-2-21,57,40,23,34,23,12,92,59,18,30.25,30.17,30.11,10,10,10,5,0,,0.00,1,,45
2013-2-22,45,40,36,37,34,23,97,84,43,30.31,30.23,30.11,10,6,2,8,4,,0.03,8,Rain,23
2013-2-23,44,40,36,43,40,36,98,96,93,30.12,29.95,29.85,10,4,0,8,3,,0.24,8,Fog-Rain,339
2013-2-24,65,50,35,45,39,28,98,72,25,30.03,29.93,29.84,10,7,0,9,2,,0.00,3,Fog,287
2013-2-25,43,37,31,34,28,24,96,67,47,30.20,30.11,30.03,10,10,7,9,3,,0.00,2,,35
2013-2-26,62,48,35,60,43,26,98,90,56,30.08,29.78,29.54,10,5,1,12,6,17,0.82,8,Rain,44
2013-2-27,58,47,36,44,38,35,97,72,45,29.83,29.75,29.67,10,9,2,10,4,16,0.00,1,,209
2013-2-28,52,41,30,36,29,22,89,62,30,29.89,29.80,29.73,10,10,10,10,3,,0.00,3,,264